Time;durP1;ratioP1;P1;durP2;ratioP2;P2;SDS_P1;SDS_P2;PMS_P1;PMS_P2;Temp;Humidity;BMP_temperature;BMP_pressure;BME280_temperature;BME280_humidity;BME280_pressure;Samples;Min_cycle;Max_cycle;Signal;HPM_P1;HPM_P2
2023/03/23 00:01:14;;;;;;;3.20;2.83;;;6.70;99.90;;;;;;5043760;28;20057;-36
2023/03/23 00:03:42;;;;;;;3.80;2.83;;;6.80;99.90;;;;;;5043318;28;20045;-36
2023/03/23 00:06:09;;;;;;;3.60;3.13;;;6.90;99.90;;;;;;5043158;28;20500;-37
2023/03/23 00:08:44;;;;;;;6.35;3.03;;;7.10;99.90;;;;;;5037561;28;20221;-37
2023/03/23 00:11:20;;;;;;;4.28;3.00;;;6.90;99.90;;;;;;5042292;28;20041;-37
2023/03/23 00:13:51;;;;;;;6.22;4.88;;;6.80;99.90;;;;;;5041464;28;20037;-37
2023/03/23 00:16:28;;;;;;;4.28;3.97;;;6.70;99.90;;;;;;5041813;28;20068;-37
2023/03/23 00:18:57;;;;;;;24.90;7.80;;;6.60;99.90;;;;;;5043075;28;20459;-37
2023/03/23 00:21:32;;;;;;;4.07;3.75;;;6.60;99.90;;;;;;5041996;28;20057;-37
2023/03/23 00:24:11;;;;;;;3.58;3.17;;;6.60;99.90;;;;;;5025490;28;20036;-36
2023/03/23 00:26:43;;;;;;;6.13;3.47;;;6.60;99.90;;;;;;5042941;28;20052;-37
2023/03/23 00:29:21;;;;;;;4.18;3.30;;;6.30;99.90;;;;;;5041754;28;20056;-37
2023/03/23 00:31:51;;;;;;;4.40;3.28;;;6.10;99.90;;;;;;5042113;28;20056;-36
2023/03/23 00:34:21;;;;;;;3.10;2.80;;;6.00;99.90;;;;;;5041905;28;20469;-37
2023/03/23 00:36:50;;;;;;;5.13;3.50;;;6.10;99.90;;;;;;5043331;28;20068;-37
2023/03/23 00:39:17;;;;;;;3.72;3.42;;;6.30;99.90;;;;;;5041480;28;20041;-37
2023/03/23 00:41:45;;;;;;;10.23;5.20;;;6.40;99.90;;;;;;5040555;28;20048;-36
2023/03/23 00:44:16;;;;;;;8.18;4.18;;;6.50;99.90;;;;;;5041023;28;20318;-37
2023/03/23 00:46:44;;;;;;;5.43;2.90;;;6.50;99.90;;;;;;5039477;28;20048;-37
2023/03/23 00:49:15;;;;;;;3.60;3.30;;;6.30;99.90;;;;;;5041719;28;20079;-37
2023/03/23 00:51:42;;;;;;;4.60;4.20;;;6.20;99.90;;;;;;5042518;28;20054;-37
2023/03/23 00:54:09;;;;;;;4.38;2.97;;;6.20;99.90;;;;;;5042558;28;20056;-37
2023/03/23 00:56:36;;;;;;;2.25;2.15;;;6.20;99.90;;;;;;5042566;28;20057;-36
2023/03/23 00:59:03;;;;;;;3.05;2.65;;;6.30;99.90;;;;;;5039409;28;20041;-37
2023/03/23 01:01:30;;;;;;;3.70;3.40;;;6.40;99.90;;;;;;5040668;28;20057;-37
2023/03/23 01:04:00;;;;;;;3.63;2.97;;;6.50;99.90;;;;;;5040174;28;20041;-36
2023/03/23 01:06:28;;;;;;;3.05;2.60;;;6.60;99.90;;;;;;5041022;28;20041;-36
2023/03/23 01:08:56;;;;;;;7.95;3.03;;;6.70;99.90;;;;;;5041942;28;20087;-37
2023/03/23 01:11:25;;;;;;;3.13;2.72;;;6.70;99.90;;;;;;5040693;28;20158;-36
2023/03/23 01:13:52;;;;;;;3.60;3.30;;;6.70;99.90;;;;;;5040113;28;20509;-36
2023/03/23 01:16:21;;;;;;;6.03;2.67;;;6.80;99.90;;;;;;5042722;28;20060;-37
2023/03/23 01:18:47;;;;;;;4.95;2.75;;;6.90;99.90;;;;;;5042287;28;20516;-37
2023/03/23 01:21:16;;;;;;;3.85;3.35;;;6.80;99.90;;;;;;5042882;28;20075;-36
2023/03/23 01:23:43;;;;;;;4.85;3.40;;;6.70;99.90;;;;;;5041852;28;20059;-36
2023/03/23 01:26:15;;;;;;;3.83;3.30;;;7.00;99.90;;;;;;5040767;28;20433;-36
2023/03/23 01:28:42;;;;;;;3.05;2.83;;;7.20;99.90;;;;;;5039512;28;20053;-37
2023/03/23 01:31:17;;;;;;;4.72;3.55;;;7.30;99.90;;;;;;5041946;28;20037;-36
2023/03/23 01:33:44;;;;;;;2.35;2.15;;;7.40;99.90;;;;;;5041275;28;20048;-36
2023/03/23 01:36:17;;;;;;;3.95;2.92;;;7.40;99.90;;;;;;5041189;28;20510;-37
2023/03/23 01:38:46;;;;;;;2.92;2.50;;;7.50;99.90;;;;;;5040575;28;20282;-36
2023/03/23 01:41:15;;;;;;;5.50;3.40;;;7.50;99.90;;;;;;5041137;28;20533;-37
2023/03/23 01:43:54;;;;;;;6.35;3.55;;;7.40;99.90;;;;;;5039342;28;20245;-36
2023/03/23 01:46:22;;;;;;;3.17;2.95;;;7.60;99.90;;;;;;5040704;28;20041;-36
2023/03/23 01:48:50;;;;;;;4.18;2.80;;;7.80;99.90;;;;;;5042619;28;20461;-36
2023/03/23 01:51:19;;;;;;;2.75;2.50;;;7.80;99.90;;;;;;5041140;28;20044;-37
2023/03/23 01:54:00;;;;;;;7.38;3.13;;;7.90;99.90;;;;;;5035014;28;20501;-37
2023/03/23 01:56:40;;;;;;;10.48;2.63;;;7.90;99.90;;;;;;5039300;28;20053;-37
2023/03/23 01:59:11;;;;;;;6.53;3.05;;;7.80;99.90;;;;;;5043034;28;20037;-37
2023/03/23 02:01:44;;;;;;;3.50;2.55;;;7.70;99.90;;;;;;5043295;28;20048;-37
2023/03/23 02:04:14;;;;;;;2.88;2.60;;;7.60;99.90;;;;;;5044144;28;20052;-37
2023/03/23 02:06:42;;;;;;;2.95;2.45;;;7.50;99.90;;;;;;5044368;28;20040;-37
2023/03/23 02:09:19;;;;;;;5.50;3.72;;;7.70;99.90;;;;;;5042958;28;20048;-37
2023/03/23 02:11:50;;;;;;;4.30;3.55;;;7.50;99.90;;;;;;5043714;28;20517;-37
2023/03/23 02:14:18;;;;;;;3.10;2.30;;;7.40;99.90;;;;;;5041918;28;20045;-37
2023/03/23 02:17:00;;;;;;;3.38;3.00;;;7.20;99.90;;;;;;5044686;28;20441;-37
2023/03/23 02:19:51;;;;;;;2.60;2.40;;;7.00;99.90;;;;;;5039661;28;20048;-37
2023/03/23 02:22:42;;;;;;;3.80;3.08;;;6.90;99.90;;;;;;5038604;28;20044;-37
2023/03/23 02:25:32;;;;;;;4.40;4.00;;;6.90;99.90;;;;;;5045100;28;20353;-37
2023/03/23 02:28:36;;;;;;;3.75;2.50;;;7.00;99.90;;;;;;5036893;28;20045;-36
2023/03/23 02:31:17;;;;;;;2.72;2.53;;;7.10;99.90;;;;;;5042463;28;20548;-36
2023/03/23 02:33:47;;;;;;;;;;;7.10;99.90;;;;;;5045153;28;20036;-36
2023/03/23 02:36:28;;;;;;;2.08;1.98;;;7.10;99.90;;;;;;5044805;28;20044;-36
2023/03/23 02:39:09;;;;;;;3.00;2.70;;;7.20;99.90;;;;;;5042439;28;20045;-36
2023/03/23 02:41:48;;;;;;;2.38;2.20;;;7.10;99.90;;;;;;5044502;28;20326;-36
2023/03/23 02:44:15;;;;;;;3.47;3.17;;;6.80;99.90;;;;;;5041844;28;20064;-37
2023/03/23 02:46:43;;;;;;;5.53;3.20;;;6.60;99.90;;;;;;5042919;28;20356;-36
2023/03/23 02:49:14;;;;;;;3.03;2.75;;;6.80;99.90;;;;;;5043614;28;20057;-37
2023/03/23 02:51:43;;;;;;;2.45;2.25;;;7.10;99.90;;;;;;5044517;28;20509;-37
2023/03/23 02:54:11;;;;;;;2.90;2.65;;;7.20;99.90;;;;;;5044427;28;20049;-36
2023/03/23 02:56:40;;;;;;;4.57;3.05;;;7.20;99.90;;;;;;5044662;28;20146;-37
2023/03/23 02:59:13;;;;;;;2.38;2.17;;;7.00;99.90;;;;;;5041687;28;20296;-37
2023/03/23 03:01:40;;;;;;;3.42;3.13;;;7.10;99.90;;;;;;5044021;28;20053;-36
2023/03/23 03:04:12;;;;;;;3.38;2.38;;;7.10;99.90;;;;;;5043749;28;20064;-36
2023/03/23 03:07:00;;;;;;;2.25;2.15;;;7.00;99.90;;;;;;5038345;28;20051;-37
2023/03/23 03:09:53;;;;;;;2.05;1.95;;;6.80;99.90;;;;;;5044537;28;20059;-36
2023/03/23 03:12:53;;;;;;;3.33;2.85;;;6.60;99.90;;;;;;5043547;28;20124;-37
2023/03/23 03:15:26;;;;;;;4.13;2.42;;;6.60;99.90;;;;;;5037575;28;20502;-37
2023/03/23 03:18:22;;;;;;;2.40;2.20;;;6.70;99.90;;;;;;5044182;28;20049;-37
2023/03/23 03:20:54;;;;;;;2.60;2.40;;;6.80;99.90;;;;;;5043813;28;20053;-36
2023/03/23 03:23:26;;;;;;;2.63;2.42;;;6.90;99.90;;;;;;5042324;28;20497;-37
2023/03/23 03:25:57;;;;;;;2.47;2.28;;;7.00;99.90;;;;;;5042440;28;20051;-37
2023/03/23 03:28:33;;;;;;;4.57;3.22;;;6.90;99.90;;;;;;5040529;28;20262;-37
2023/03/23 03:31:03;;;;;;;2.70;2.50;;;6.70;99.90;;;;;;5042644;28;20047;-37
2023/03/23 03:33:31;;;;;;;2.72;2.53;;;6.60;99.90;;;;;;5044882;28;20087;-37
2023/03/23 03:36:02;;;;;;;2.53;2.30;;;6.40;99.90;;;;;;5043852;28;20060;-36
2023/03/23 03:38:28;;;;;;;9.15;3.47;;;6.70;99.90;;;;;;5043253;28;20565;-36
2023/03/23 03:40:56;;;;;;;2.83;2.60;;;6.50;99.90;;;;;;5042229;28;20061;-36
2023/03/23 03:43:23;;;;;;;3.28;2.17;;;6.60;99.90;;;;;;5041948;28;20335;-36
2023/03/23 03:45:50;;;;;;;2.95;2.75;;;6.70;99.90;;;;;;5041000;28;20033;-36
2023/03/23 03:48:16;;;;;;;4.90;3.97;;;6.70;99.90;;;;;;5042283;28;20057;-36
2023/03/23 03:50:43;;;;;;;2.70;2.22;;;6.70;99.90;;;;;;5043432;28;20041;-36
2023/03/23 03:53:10;;;;;;;5.45;3.47;;;6.70;99.90;;;;;;5042502;28;20537;-35
2023/03/23 03:55:38;;;;;;;5.60;2.95;;;6.50;99.90;;;;;;5042275;28;20639;-36
2023/03/23 03:58:09;;;;;;;3.42;3.08;;;6.40;99.90;;;;;;5040094;28;20336;-36
2023/03/23 04:00:58;;;;;;;4.90;3.72;;;6.30;99.90;;;;;;5032651;28;20065;-36
2023/03/23 04:03:30;;;;;;;3.20;2.72;;;6.40;99.90;;;;;;5041102;28;20394;-36
2023/03/23 04:06:04;;;;;;;2.58;2.38;;;6.40;99.90;;;;;;5041896;28;20409;-36
2023/03/23 04:08:31;;;;;;;1.90;1.80;;;6.40;99.90;;;;;;5043987;28;20056;-36
2023/03/23 04:10:58;;;;;;;2.85;2.65;;;6.40;99.90;;;;;;5042750;28;20044;-36
2023/03/23 04:13:25;;;;;;;2.42;2.22;;;6.50;99.90;;;;;;5040059;28;20543;-36
2023/03/23 04:16:06;;;;;;;2.60;2.28;;;6.70;99.90;;;;;;5040882;28;20057;-36
2023/03/23 04:18:34;;;;;;;3.78;2.83;;;6.60;99.90;;;;;;5041271;28;20053;-35
2023/03/23 04:21:02;;;;;;;4.70;3.45;;;6.40;99.90;;;;;;5043159;28;20068;-36
2023/03/23 04:23:33;;;;;;;8.93;4.30;;;6.20;99.90;;;;;;5040481;28;20208;-36
2023/03/23 04:26:03;;;;;;;3.83;3.33;;;6.10;99.90;;;;;;5042705;28;20049;-36
2023/03/23 04:28:35;;;;;;;2.92;2.22;;;6.10;99.90;;;;;;5041877;28;20068;-36
2023/03/23 04:31:20;;;;;;;3.35;3.03;;;6.20;99.90;;;;;;5039925;28;20045;-36
2023/03/23 04:33:53;;;;;;;4.20;2.88;;;6.30;99.90;;;;;;5039961;28;20635;-35
2023/03/23 04:36:22;;;;;;;3.05;2.67;;;6.20;99.90;;;;;;5042281;28;20056;-35
2023/03/23 04:39:02;;;;;;;4.05;2.47;;;5.90;99.90;;;;;;5041213;28;20070;-35
2023/03/23 04:41:30;;;;;;;3.63;2.38;;;5.90;99.90;;;;;;5041243;28;20116;-36
2023/03/23 04:44:08;;;;;;;2.78;2.58;;;5.90;99.90;;;;;;5039809;28;20536;-36
2023/03/23 04:46:45;;;;;;;2.53;2.35;;;6.20;99.90;;;;;;5039710;28;20702;-36
2023/03/23 04:49:14;;;;;;;2.97;2.40;;;6.30;99.90;;;;;;5041437;28;20466;-36
2023/03/23 04:51:41;;;;;;;3.50;3.20;;;6.50;99.90;;;;;;5041171;28;20052;-36
2023/03/23 04:54:20;;;;;;;4.18;3.63;;;6.50;99.90;;;;;;5040505;28;20520;-36
2023/03/23 04:56:50;;;;;;;3.80;3.47;;;6.20;99.90;;;;;;5041789;28;20056;-36
2023/03/23 04:59:17;;;;;;;3.40;3.10;;;5.90;99.90;;;;;;5039073;28;20493;-36
2023/03/23 05:01:59;;;;;;;2.97;2.67;;;5.80;99.90;;;;;;5040527;28;20860;-35
2023/03/23 05:04:27;;;;;;;3.22;2.92;;;5.80;99.90;;;;;;5042733;28;20226;-36
2023/03/23 05:07:04;;;;;;;4.15;3.10;;;5.80;99.90;;;;;;5040362;28;20056;-35
2023/03/23 05:09:33;;;;;;;3.00;2.40;;;5.90;99.90;;;;;;5038865;28;20556;-36
2023/03/23 05:12:05;;;;;;;3.17;2.95;;;5.90;99.90;;;;;;5040699;28;20544;-35
2023/03/23 05:14:33;;;;;;;2.30;2.10;;;5.80;99.90;;;;;;5040650;28;20043;-35
2023/03/23 05:17:07;;;;;;;9.00;3.30;;;5.70;99.90;;;;;;5041102;28;20048;-36
2023/03/23 05:19:33;;;;;;;4.45;2.72;;;5.80;99.90;;;;;;5035815;28;20036;-36
2023/03/23 05:22:07;;;;;;;4.25;2.60;;;5.90;99.90;;;;;;5033921;28;20505;-36
2023/03/23 05:24:44;;;;;;;6.65;3.50;;;6.00;99.90;;;;;;5039929;28;20176;-36
2023/03/23 05:27:10;;;;;;;7.88;5.40;;;6.20;99.90;;;;;;5038312;28;20041;-36
2023/03/23 05:29:41;;;;;;;2.90;2.55;;;6.30;99.90;;;;;;5038754;28;20131;-36
2023/03/23 05:32:08;;;;;;;3.05;2.78;;;6.40;99.90;;;;;;5047211;28;20072;-36
2023/03/23 05:34:37;;;;;;;3.97;3.22;;;6.40;99.90;;;;;;5048881;28;20556;-36
2023/03/23 05:37:04;;;;;;;3.05;2.75;;;6.30;99.90;;;;;;5045250;28;20057;-36
2023/03/23 05:39:47;;;;;;;2.83;2.08;;;6.30;99.90;;;;;;5041962;28;20045;-36
2023/03/23 05:42:49;;;;;;;3.28;2.40;;;6.50;99.90;;;;;;5043455;28;20060;-36
2023/03/23 05:45:22;;;;;;;2.78;2.58;;;6.70;99.90;;;;;;5044368;28;20060;-36
2023/03/23 05:47:51;;;;;;;3.08;2.65;;;6.70;99.90;;;;;;5043217;28;20057;-36
2023/03/23 05:50:21;;;;;;;3.20;2.17;;;6.70;99.90;;;;;;5040186;28;20071;-35
2023/03/23 05:52:48;;;;;;;3.50;2.38;;;6.80;99.90;;;;;;5044437;28;20064;-35
2023/03/23 05:55:16;;;;;;;2.35;2.15;;;7.00;99.90;;;;;;5043879;28;20051;-36
2023/03/23 05:57:48;;;;;;;2.58;2.38;;;7.20;99.90;;;;;;5038993;28;20568;-36
2023/03/23 06:00:24;;;;;;;2.35;2.08;;;7.30;99.90;;;;;;5043206;28;20061;-36
2023/03/23 06:02:59;;;;;;;2.63;2.42;;;7.50;99.90;;;;;;5043542;28;20036;-36
2023/03/23 06:05:45;;;;;;;3.28;2.00;;;7.70;99.90;;;;;;5047294;28;20045;-36
2023/03/23 06:08:15;;;;;;;2.08;1.98;;;7.70;99.90;;;;;;5042278;28;20417;-35
2023/03/23 06:10:42;;;;;;;5.70;2.38;;;7.70;99.90;;;;;;5041888;28;20049;-36
2023/03/23 06:13:08;;;;;;;2.42;2.00;;;7.80;99.90;;;;;;5042421;28;20053;-35
2023/03/23 06:15:48;;;;;;;2.20;2.10;;;7.80;99.90;;;;;;5042176;28;20051;-36
2023/03/23 06:18:28;;;;;;;3.53;3.27;;;7.70;99.90;;;;;;5039207;28;20052;-36
2023/03/23 06:21:09;;;;;;;6.18;2.95;;;7.70;99.90;;;;;;5042683;28;20092;-36
2023/03/23 06:23:52;;;;;;;7.63;2.75;;;7.60;99.90;;;;;;5025679;28;20045;-36
2023/03/23 06:26:28;;;;;;;3.67;2.53;;;7.60;99.90;;;;;;5043402;28;20048;-36
2023/03/23 06:28:58;;;;;;;3.97;2.10;;;7.70;99.90;;;;;;5041965;28;20055;-36
2023/03/23 06:31:27;;;;;;;3.80;2.60;;;8.10;99.90;;;;;;5043343;28;20472;-36
2023/03/23 06:33:53;;;;;;;1.95;1.85;;;8.40;99.90;;;;;;5027052;28;20045;-36
2023/03/23 06:36:27;;;;;;;2.75;1.98;;;8.60;99.90;;;;;;5045747;28;20053;-37
2023/03/23 06:39:05;;;;;;;2.47;2.13;;;8.50;99.90;;;;;;5042833;28;20040;-36
2023/03/23 06:41:46;;;;;;;3.95;2.38;;;8.20;99.90;;;;;;5042829;28;20645;-36
2023/03/23 06:44:13;;;;;;;2.50;2.30;;;8.10;99.90;;;;;;5043869;28;20091;-36
2023/03/23 06:46:41;;;;;;;2.53;2.33;;;7.90;99.90;;;;;;5043343;28;20426;-36
2023/03/23 06:49:40;;;;;;;4.30;2.85;;;7.70;99.90;;;;;;5040333;28;20071;-37
2023/03/23 06:52:23;;;;;;;3.80;3.20;;;7.70;99.90;;;;;;5043562;28;20045;-37
2023/03/23 06:54:51;;;;;;;3.97;3.25;;;7.70;99.90;;;;;;5043740;28;20400;-36
2023/03/23 06:57:20;;;;;;;3.60;3.30;;;7.70;99.90;;;;;;5045019;28;20742;-36
2023/03/23 06:59:48;;;;;;;3.30;3.00;;;7.70;99.90;;;;;;5042096;28;20341;-37
2023/03/23 07:02:14;;;;;;;3.22;3.03;;;7.80;99.90;;;;;;5043424;28;20504;-36
2023/03/23 07:04:43;;;;;;;3.60;3.30;;;8.00;99.90;;;;;;5043906;28;20056;-36
2023/03/23 07:07:18;;;;;;;4.65;3.15;;;8.10;99.90;;;;;;5041341;28;20780;-36
2023/03/23 07:09:52;;;;;;;8.93;3.58;;;8.20;99.90;;;;;;5042745;28;20051;-36
2023/03/23 07:12:22;;;;;;;3.38;2.95;;;8.40;99.90;;;;;;5042558;28;20448;-36
2023/03/23 07:14:51;;;;;;;4.68;3.10;;;8.60;99.90;;;;;;5041913;28;20052;-36
2023/03/23 07:17:18;;;;;;;3.53;2.63;;;8.70;99.90;;;;;;5045370;28;20064;-36
2023/03/23 07:20:00;;;;;;;4.32;3.17;;;8.90;99.90;;;;;;5007933;28;20037;-36
2023/03/23 07:22:26;;;;;;;3.75;3.45;;;9.10;99.90;;;;;;5041630;28;20239;-37
2023/03/23 07:25:02;;;;;;;4.28;2.47;;;9.20;99.90;;;;;;5044349;28;20449;-37
2023/03/23 07:27:40;;;;;;;23.55;7.70;;;9.30;99.90;;;;;;5041255;28;20049;-35
2023/03/23 07:30:08;;;;;;;2.55;2.35;;;9.50;99.90;;;;;;5042628;28;20052;-36
2023/03/23 07:32:34;;;;;;;3.40;3.10;;;9.60;99.90;;;;;;5044039;28;20319;-37
2023/03/23 07:35:01;;;;;;;3.90;3.50;;;9.70;99.90;;;;;;5035725;28;20044;-36
2023/03/23 07:37:37;;;;;;;3.72;2.72;;;9.90;99.90;;;;;;5042060;28;20091;-36
2023/03/23 07:40:14;;;;;;;4.70;3.08;;;9.90;99.90;;;;;;5045405;28;20045;-36
2023/03/23 07:42:51;;;;;;;3.25;2.95;;;10.00;99.90;;;;;;5040127;28;20775;-36
2023/03/23 07:45:26;;;;;;;3.05;2.75;;;10.00;99.90;;;;;;5041922;28;20065;-37
2023/03/23 07:47:53;;;;;;;3.47;3.15;;;10.30;99.90;;;;;;5042642;28;20060;-36
2023/03/23 07:50:24;;;;;;;6.90;3.08;;;10.50;99.90;;;;;;5043667;28;20037;-37
2023/03/23 07:52:57;;;;;;;3.85;3.30;;;10.60;99.90;;;;;;5041941;28;20052;-36
2023/03/23 07:55:27;;;;;;;2.90;2.55;;;10.80;99.90;;;;;;5042461;28;20044;-37
2023/03/23 07:58:07;;;;;;;4.65;4.13;;;10.90;99.90;;;;;;5041398;28;20048;-36
2023/03/23 08:00:33;;;;;;;6.68;3.35;;;11.00;99.90;;;;;;5042262;28;20505;-37
2023/03/23 08:03:05;;;;;;;4.18;3.53;;;11.10;99.90;;;;;;5042175;28;20045;-37
2023/03/23 08:05:59;;;;;;;3.50;3.17;;;11.00;99.90;;;;;;5043197;28;20276;-38
2023/03/23 08:08:52;;;;;;;2.80;2.58;;;11.10;99.90;;;;;;5041219;28;20050;-36
2023/03/23 08:11:48;;;;;;;6.38;2.97;;;11.20;99.90;;;;;;5041114;28;20044;-37
2023/03/23 08:14:33;;;;;;;5.25;3.28;;;11.40;99.90;;;;;;5033180;28;20048;-37
2023/03/23 08:17:24;;;;;;;5.63;3.05;;;11.70;99.90;;;;;;5039518;28;20049;-37
2023/03/23 08:20:26;;;;;;;3.25;2.95;;;12.30;99.90;;;;;;4983964;28;20582;-37
2023/03/23 08:23:08;;;;;;;3.40;3.10;;;13.00;99.90;;;;;;5029829;28;20041;-37
2023/03/23 08:25:38;;;;;;;7.07;3.10;;;12.70;99.90;;;;;;5042128;28;20057;-36
2023/03/23 08:28:25;;;;;;;3.60;3.28;;;12.60;99.90;;;;;;5036072;28;20369;-36
2023/03/23 08:31:15;;;;;;;5.03;3.05;;;12.80;99.90;;;;;;5020848;28;20056;-36
2023/03/23 08:34:10;;;;;;;3.38;3.08;;;14.10;99.90;;;;;;5032568;28;20056;-37
2023/03/23 08:36:37;;;;;;;4.05;3.75;;;14.90;99.90;;;;;;5036159;28;20243;-37
2023/03/23 08:39:23;;;;;;;2.70;2.47;;;14.80;99.90;;;;;;5037724;28;20041;-37
2023/03/23 08:42:00;;;;;;;2.85;2.65;;;14.30;99.90;;;;;;5037765;28;20053;-37
2023/03/23 08:44:52;;;;;;;4.03;2.13;;;14.10;99.90;;;;;;5036240;28;20048;-37
2023/03/23 08:47:28;;;;;;;2.85;2.63;;;14.40;99.90;;;;;;5036554;28;20053;-37
2023/03/23 08:50:25;;;;;;;6.85;3.33;;;15.10;99.90;;;;;;5020931;28;20033;-38
2023/03/23 08:53:11;;;;;;;4.05;3.60;;;15.60;99.90;;;;;;5038336;28;20052;-37
2023/03/23 08:55:50;;;;;;;6.50;3.72;;;15.70;99.90;;;;;;5032633;28;20289;-37
2023/03/23 08:58:25;;;;;;;3.17;2.45;;;15.00;99.90;;;;;;5034299;28;20087;-37
2023/03/23 09:01:11;;;;;;;3.00;2.67;;;15.70;99.90;;;;;;5038060;28;20068;-37
2023/03/23 09:03:43;;;;;;;4.55;3.95;;;15.20;99.90;;;;;;5037241;28;20037;-37
2023/03/23 09:06:30;;;;;;;11.10;3.28;;;14.80;99.90;;;;;;5031815;28;20112;-38
2023/03/23 09:08:56;;;;;;;4.55;2.53;;;14.80;99.90;;;;;;5035849;28;20056;-37
2023/03/23 09:11:23;;;;;;;4.57;4.18;;;14.80;99.90;;;;;;5033415;28;20056;-37
2023/03/23 09:13:49;;;;;;;3.25;2.85;;;14.60;99.90;;;;;;5036559;28;20048;-38
2023/03/23 09:16:16;;;;;;;3.83;3.03;;;14.60;99.90;;;;;;5038748;28;20064;-37
2023/03/23 09:18:42;;;;;;;3.90;3.00;;;14.50;99.90;;;;;;5037531;28;20041;-37
2023/03/23 09:21:09;;;;;;;4.10;3.58;;;14.60;99.90;;;;;;5035996;28;20041;-37
2023/03/23 09:23:35;;;;;;;3.67;3.05;;;14.60;99.90;;;;;;5039408;28;20436;-37
2023/03/23 09:26:03;;;;;;;5.88;3.40;;;14.70;99.90;;;;;;5037184;28;20052;-37
2023/03/23 09:28:31;;;;;;;3.78;3.17;;;14.60;99.90;;;;;;5042802;28;20056;-37
2023/03/23 09:30:58;;;;;;;4.88;3.90;;;14.60;99.90;;;;;;5036017;28;20068;-37
2023/03/23 09:33:25;;;;;;;9.38;4.93;;;14.60;99.90;;;;;;5036745;28;20064;-38
2023/03/23 09:35:52;;;;;;;5.70;3.75;;;14.60;99.90;;;;;;5037052;28;20053;-38
2023/03/23 09:38:19;;;;;;;5.07;3.85;;;14.60;99.90;;;;;;5036696;28;20401;-37
2023/03/23 09:40:48;;;;;;;2.92;2.72;;;14.60;99.90;;;;;;5037436;28;20071;-37
2023/03/23 09:43:33;;;;;;;2.92;2.65;;;14.60;99.90;;;;;;5033447;28;20044;-38
2023/03/23 09:46:22;;;;;;;3.28;2.97;;;14.60;99.90;;;;;;5033997;28;20427;-37
2023/03/23 09:48:57;;;;;;;2.65;2.45;;;14.60;99.90;;;;;;5030840;28;20417;-38
2023/03/23 09:51:42;;;;;;;6.15;4.45;;;14.60;99.90;;;;;;5035659;28;20053;-37
2023/03/23 09:54:20;;;;;;;4.13;3.78;;;15.00;99.90;;;;;;5036870;28;20063;-38
2023/03/23 09:56:48;;;;;;;4.43;3.13;;;15.00;99.90;;;;;;5033586;28;20770;-37
2023/03/23 09:59:27;;;;;;;4.05;3.65;;;14.90;99.90;;;;;;5033094;28;20123;-37
2023/03/23 10:02:10;;;;;;;4.57;3.28;;;14.70;99.90;;;;;;5035663;28;20052;-37
2023/03/23 10:04:55;;;;;;;4.13;3.65;;;14.80;99.90;;;;;;5034481;28;20065;-37
2023/03/23 10:07:25;;;;;;;5.35;3.92;;;15.00;99.90;;;;;;5034227;28;20052;-37
2023/03/23 10:10:02;;;;;;;3.33;3.00;;;15.10;99.90;;;;;;5036438;28;20048;-37
2023/03/23 10:12:44;;;;;;;12.75;3.72;;;15.10;99.90;;;;;;5035911;28;20053;-38
2023/03/23 10:15:19;;;;;;;4.32;3.17;;;15.30;99.90;;;;;;5035190;28;20049;-37
2023/03/23 10:17:50;;;;;;;3.75;3.35;;;15.40;99.90;;;;;;5041608;28;20052;-37
2023/03/23 10:20:28;;;;;;;3.55;3.22;;;15.50;99.90;;;;;;5039960;28;20057;-38
2023/03/23 10:23:33;;;;;;;3.60;3.28;;;15.60;99.90;;;;;;5039519;28;20083;-39
2023/03/23 10:26:21;;;;;;;5.60;3.90;;;15.60;99.90;;;;;;5039969;28;20550;-38
2023/03/23 10:29:19;;;;;;;3.83;3.15;;;15.70;99.90;;;;;;5042916;28;20037;-37
2023/03/23 10:31:56;;;;;;;7.05;3.45;;;15.90;99.90;;;;;;5014795;28;20042;-40
2023/03/23 10:34:32;;;;;;;5.60;2.75;;;16.10;99.90;;;;;;5018833;28;20052;-38
2023/03/23 10:37:16;;;;;;;8.98;3.10;;;16.20;99.90;;;;;;5018982;28;20061;-37
2023/03/23 10:39:55;;;;;;;5.72;3.42;;;16.40;99.90;;;;;;5011365;28;20052;-37
2023/03/23 10:42:31;;;;;;;4.13;3.35;;;16.60;99.90;;;;;;5033030;28;20060;-37
2023/03/23 10:45:19;;;;;;;4.57;3.65;;;16.70;99.90;;;;;;5035081;28;20057;-37
2023/03/23 10:47:52;;;;;;;4.63;4.18;;;16.90;99.90;;;;;;5034109;28;20068;-37
2023/03/23 10:50:27;;;;;;;3.97;3.53;;;16.90;99.90;;;;;;5039857;28;20040;-37
2023/03/23 10:52:57;;;;;;;4.20;3.85;;;16.90;99.90;;;;;;5040160;28;20083;-37
2023/03/23 10:55:26;;;;;;;4.78;3.33;;;16.90;99.90;;;;;;5041079;28;20033;-37
2023/03/23 10:58:05;;;;;;;2.33;2.13;;;17.10;99.90;;;;;;5038682;28;20047;-37
2023/03/23 11:00:33;;;;;;;2.53;2.15;;;16.90;99.90;;;;;;5039825;28;20517;-37
2023/03/23 11:03:06;;;;;;;4.90;2.65;;;16.90;99.90;;;;;;5040314;28;20360;-37
2023/03/23 11:05:37;;;;;;;2.20;1.45;;;16.80;97.20;;;;;;5039181;28;20056;-37
2023/03/23 11:08:11;;;;;;;3.63;2.00;;;16.90;99.50;;;;;;5041012;28;20276;-37
2023/03/23 11:10:40;;;;;;;2.75;1.75;;;16.90;97.20;;;;;;5029233;28;20481;-38
2023/03/23 11:13:14;;;;;;;2.63;2.42;;;17.10;99.10;;;;;;5018963;28;20441;-38
2023/03/23 11:15:45;;;;;;;2.47;1.98;;;17.20;98.30;;;;;;5018657;28;20050;-37
2023/03/23 11:18:17;;;;;;;;;;;17.00;95.40;;;;;;5019920;28;20045;-37
2023/03/23 11:20:48;;;;;;;1.52;1.42;;;17.00;97.50;;;;;;5017625;28;19928;-37
2023/03/23 11:23:22;;;;;;;2.75;2.00;;;17.10;96.60;;;;;;5018941;28;20423;-38
2023/03/23 11:26:26;;;;;;;3.60;1.42;;;17.00;99.20;;;;;;5018609;28;20052;-38
2023/03/23 11:29:08;;;;;;;3.70;1.92;;;16.80;96.20;;;;;;5017414;28;20053;-37
2023/03/23 11:31:39;;;;;;;1.80;1.65;;;16.60;93.70;;;;;;5018733;28;20045;-36
2023/03/23 11:34:13;;;;;;;1.65;1.55;;;16.70;99.70;;;;;;5022747;28;20041;-36
2023/03/23 11:36:50;;;;;;;1.73;1.63;;;16.70;97.40;;;;;;5037225;28;20052;-36
2023/03/23 11:39:28;;;;;;;3.38;2.60;;;16.90;97.70;;;;;;5023263;28;20053;-36
2023/03/23 11:41:57;;;;;;;2.50;1.50;;;17.10;96.10;;;;;;5021467;28;20417;-38
2023/03/23 11:44:31;;;;;;;1.50;1.40;;;17.20;96.90;;;;;;5038908;28;20060;-37
2023/03/23 11:47:03;;;;;;;3.25;2.20;;;17.40;99.20;;;;;;5038603;28;20343;-37
2023/03/23 11:49:45;;;;;;;2.55;1.85;;;17.50;95.20;;;;;;5039916;28;20543;-37
2023/03/23 11:53:01;;;;;;;2.22;2.08;;;17.60;97.50;;;;;;5041036;28;20413;-38
2023/03/23 11:55:45;;;;;;;3.60;2.17;;;17.60;96.30;;;;;;5022253;28;20045;-37
2023/03/23 11:58:17;;;;;;;5.53;1.92;;;18.00;91.20;;;;;;5037994;28;20392;-36
2023/03/23 12:00:57;;;;;;;8.43;1.90;;;18.20;92.90;;;;;;5039598;28;20053;-36
2023/03/23 12:03:33;;;;;;;4.97;2.97;;;18.40;91.10;;;;;;5038302;28;20053;-37
2023/03/23 12:06:05;;;;;;;2.05;1.85;;;18.60;90.10;;;;;;5038729;28;20049;-37
2023/03/23 12:08:34;;;;;;;2.95;2.65;;;18.70;91.80;;;;;;5036905;28;20048;-37
2023/03/23 12:11:07;;;;;;;2.75;2.40;;;18.10;91.30;;;;;;5039590;28;20423;-37
2023/03/23 12:14:01;;;;;;;2.90;2.22;;;18.20;91.20;;;;;;5040297;28;20052;-37
2023/03/23 12:16:36;;;;;;;6.22;2.65;;;18.50;90.30;;;;;;5039765;28;20575;-37
2023/03/23 12:19:31;;;;;;;3.80;2.65;;;18.60;90.90;;;;;;5041278;28;20420;-37
2023/03/23 12:22:32;;;;;;;2.97;2.30;;;18.60;91.00;;;;;;5041090;28;20052;-37
2023/03/23 12:24:58;;;;;;;5.35;2.88;;;18.40;89.10;;;;;;5042708;28;20052;-37
2023/03/23 12:28:06;;;;;;;7.28;2.50;;;18.20;90.40;;;;;;5043621;28;20049;-39
2023/03/23 12:30:59;;;;;;;2.47;2.25;;;18.00;87.90;;;;;;5032272;28;20064;-37
2023/03/23 12:33:46;;;;;;;3.45;3.15;;;18.10;94.50;;;;;;5029226;28;20247;-37
2023/03/23 12:36:18;;;;;;;3.30;2.33;;;18.10;92.80;;;;;;5042578;28;20056;-37
2023/03/23 12:39:12;;;;;;;3.63;3.00;;;18.30;97.30;;;;;;5040586;28;20578;-37
2023/03/23 12:41:57;;;;;;;3.35;2.67;;;18.20;90.60;;;;;;5042201;28;20568;-38
2023/03/23 12:44:33;;;;;;;9.38;4.38;;;18.10;93.30;;;;;;5040573;28;20056;-37
2023/03/23 12:47:03;;;;;;;5.35;3.78;;;18.10;93.70;;;;;;5041340;28;20061;-37
2023/03/23 12:49:58;;;;;;;9.07;4.68;;;18.00;92.10;;;;;;5041569;28;20064;-37
2023/03/23 12:52:39;;;;;;;3.70;3.40;;;17.90;95.20;;;;;;5042598;28;20522;-38
2023/03/23 12:55:14;;;;;;;;;;;17.70;94.80;;;;;;5042509;28;20227;-37
2023/03/23 12:58:06;;;;;;;2.95;2.55;;;17.70;92.20;;;;;;5036703;28;19951;-40
2023/03/23 13:01:09;;;;;;;3.40;2.45;;;17.70;94.30;;;;;;5033187;28;20127;-37
2023/03/23 13:04:05;;;;;;;5.32;2.50;;;17.70;91.60;;;;;;5037850;28;20045;-37
2023/03/23 13:06:34;;;;;;;3.40;2.50;;;17.80;90.80;;;;;;5044936;28;20517;-38
2023/03/23 13:09:12;;;;;;;2.63;2.42;;;17.80;93.10;;;;;;5039335;28;20056;-37
2023/03/23 13:11:42;;;;;;;2.38;2.17;;;17.70;87.40;;;;;;5041112;28;20744;-37
2023/03/23 13:14:39;;;;;;;4.68;2.63;;;17.80;90.60;;;;;;5039751;28;20037;-37
2023/03/23 13:17:27;;;;;;;2.88;2.38;;;17.80;93.70;;;;;;5041164;28;20452;-37
2023/03/23 13:20:22;;;;;;;3.00;2.60;;;17.80;90.00;;;;;;5035756;28;20045;-37
2023/03/23 13:22:58;;;;;;;5.75;2.17;;;17.70;90.30;;;;;;5040485;28;20045;-37
2023/03/23 13:25:49;;;;;;;4.35;3.92;;;17.60;90.10;;;;;;5041033;28;20045;-37
2023/03/23 13:28:25;;;;;;;3.83;2.75;;;17.70;88.10;;;;;;5037288;28;20067;-38
2023/03/23 13:31:14;;;;;;;7.63;3.30;;;17.70;90.20;;;;;;5040506;28;20064;-37
2023/03/23 13:33:50;;;;;;;2.63;2.15;;;17.70;89.30;;;;;;5041726;28;20045;-37
2023/03/23 13:36:27;;;;;;;2.35;1.63;;;17.60;90.20;;;;;;5041732;28;20572;-37